Terminal Aerodrome Forecast
Issued by NWS

Home | Current Version | Previous Version | Text Only | Print | Product List | Glossary On
Versions: 1 2 3 4 5 6 7 8 9 10 11 12 13 14 15 16
922
FTUS46 KMTR 271720
TAFSNS
TAF
KSNS 271720Z 2718/2818 VRB05KT P6SM FEW012
     FM272100 29014KT P6SM SKC
     FM280300 29010KT P6SM FEW012
     FM280700 VRB04KT P6SM BKN011=

USA.gov is the U.S. government's official web portal to all federal, state and local government web resources and services.